sensor_id;sensor_type;location;lat;lon;timestamp;P1;durP1;ratioP1;P2;durP2;ratioP2
65853;SDS011;52627;48.838;2.402;2022-09-06T00:00:26;6.80;;;3.40;;
65853;SDS011;52627;48.838;2.402;2022-09-06T00:02:54;7.90;;;2.90;;
65853;SDS011;52627;48.838;2.402;2022-09-06T00:05:22;4.90;;;2.80;;
65853;SDS011;52627;48.838;2.402;2022-09-06T00:07:49;4.60;;;2.80;;
65853;SDS011;52627;48.838;2.402;2022-09-06T00:10:17;4.80;;;2.70;;
65853;SDS011;52627;48.838;2.402;2022-09-06T00:12:45;5.70;;;3.20;;
65853;SDS011;52627;48.838;2.402;2022-09-06T00:15:13;5.20;;;2.90;;
65853;SDS011;52627;48.838;2.402;2022-09-06T00:17:41;5.60;;;2.80;;
65853;SDS011;52627;48.838;2.402;2022-09-06T00:20:10;6.20;;;3.10;;
65853;SDS011;52627;48.838;2.402;2022-09-06T00:22:38;6.60;;;2.90;;
65853;SDS011;52627;48.838;2.402;2022-09-06T00:25:06;5.40;;;3.10;;
65853;SDS011;52627;48.838;2.402;2022-09-06T00:27:34;7.40;;;2.80;;
65853;SDS011;52627;48.838;2.402;2022-09-06T00:30:02;4.70;;;2.70;;
65853;SDS011;52627;48.838;2.402;2022-09-06T00:32:31;5.10;;;2.80;;
65853;SDS011;52627;48.838;2.402;2022-09-06T00:34:59;5.40;;;2.90;;
65853;SDS011;52627;48.838;2.402;2022-09-06T00:37:26;9.30;;;3.00;;
65853;SDS011;52627;48.838;2.402;2022-09-06T00:39:53;5.60;;;2.60;;
65853;SDS011;52627;48.838;2.402;2022-09-06T00:42:21;6.10;;;2.80;;
65853;SDS011;52627;48.838;2.402;2022-09-06T00:44:49;5.50;;;2.90;;
65853;SDS011;52627;48.838;2.402;2022-09-06T00:47:17;9.50;;;3.30;;
65853;SDS011;52627;48.838;2.402;2022-09-06T00:49:47;4.40;;;2.60;;
65853;SDS011;52627;48.838;2.402;2022-09-06T00:52:17;5.80;;;3.10;;
65853;SDS011;52627;48.838;2.402;2022-09-06T00:54:47;6.20;;;2.50;;
65853;SDS011;52627;48.838;2.402;2022-09-06T00:57:16;5.60;;;2.50;;
65853;SDS011;52627;48.838;2.402;2022-09-06T00:59:45;6.40;;;2.80;;
65853;SDS011;52627;48.838;2.402;2022-09-06T01:02:13;7.10;;;3.20;;
65853;SDS011;52627;48.838;2.402;2022-09-06T01:04:42;4.40;;;2.80;;
65853;SDS011;52627;48.838;2.402;2022-09-06T01:07:24;6.20;;;3.10;;
65853;SDS011;52627;48.838;2.402;2022-09-06T01:12:59;6.00;;;3.00;;
65853;SDS011;52627;48.838;2.402;2022-09-06T01:25:22;6.00;;;3.10;;
65853;SDS011;52627;48.838;2.402;2022-09-06T01:28:24;5.20;;;3.10;;
65853;SDS011;52627;48.838;2.402;2022-09-06T01:36:43;6.20;;;3.20;;
65853;SDS011;52627;48.838;2.402;2022-09-06T01:42:13;8.80;;;3.30;;
65853;SDS011;52627;48.838;2.402;2022-09-06T01:44:46;5.90;;;3.10;;
65853;SDS011;52627;48.838;2.402;2022-09-06T02:02:15;6.20;;;3.70;;
65853;SDS011;52627;48.838;2.402;2022-09-06T02:04:50;7.70;;;4.10;;
65853;SDS011;52627;48.838;2.402;2022-09-06T02:07:22;6.30;;;3.70;;
65853;SDS011;52627;48.838;2.402;2022-09-06T02:09:57;8.50;;;3.90;;
65853;SDS011;52627;48.838;2.402;2022-09-06T02:12:35;6.20;;;3.90;;
65853;SDS011;52627;48.838;2.402;2022-09-06T02:18:04;8.10;;;4.50;;
65853;SDS011;52627;48.838;2.402;2022-09-06T02:20:40;8.20;;;4.20;;
65853;SDS011;52627;48.838;2.402;2022-09-06T02:23:10;6.10;;;4.20;;
65853;SDS011;52627;48.838;2.402;2022-09-06T02:25:44;8.00;;;4.40;;
65853;SDS011;52627;48.838;2.402;2022-09-06T02:28:17;6.10;;;4.10;;
65853;SDS011;52627;48.838;2.402;2022-09-06T02:30:48;8.60;;;4.50;;
65853;SDS011;52627;48.838;2.402;2022-09-06T02:33:19;8.40;;;4.20;;
65853;SDS011;52627;48.838;2.402;2022-09-06T02:35:51;7.20;;;4.20;;
65853;SDS011;52627;48.838;2.402;2022-09-06T02:40:52;7.50;;;4.20;;
65853;SDS011;52627;48.838;2.402;2022-09-06T02:43:20;5.70;;;3.70;;
65853;SDS011;52627;48.838;2.402;2022-09-06T02:45:53;8.40;;;3.90;;
65853;SDS011;52627;48.838;2.402;2022-09-06T02:48:20;6.20;;;4.20;;
65853;SDS011;52627;48.838;2.402;2022-09-06T02:50:48;7.60;;;4.70;;
65853;SDS011;52627;48.838;2.402;2022-09-06T02:53:16;6.40;;;4.00;;
65853;SDS011;52627;48.838;2.402;2022-09-06T02:55:47;6.80;;;4.20;;
65853;SDS011;52627;48.838;2.402;2022-09-06T03:00:42;6.10;;;4.30;;
65853;SDS011;52627;48.838;2.402;2022-09-06T03:03:10;6.80;;;3.80;;
65853;SDS011;52627;48.838;2.402;2022-09-06T03:05:38;7.70;;;4.30;;
65853;SDS011;52627;48.838;2.402;2022-09-06T03:08:05;10.00;;;4.40;;
65853;SDS011;52627;48.838;2.402;2022-09-06T03:10:33;8.10;;;4.50;;
65853;SDS011;52627;48.838;2.402;2022-09-06T03:13:00;7.20;;;3.70;;
65853;SDS011;52627;48.838;2.402;2022-09-06T03:15:28;7.00;;;4.50;;
65853;SDS011;52627;48.838;2.402;2022-09-06T03:17:57;6.80;;;4.30;;
65853;SDS011;52627;48.838;2.402;2022-09-06T03:20:25;8.10;;;4.20;;
65853;SDS011;52627;48.838;2.402;2022-09-06T03:22:53;8.30;;;4.40;;
65853;SDS011;52627;48.838;2.402;2022-09-06T03:25:20;9.00;;;4.70;;
65853;SDS011;52627;48.838;2.402;2022-09-06T03:27:48;7.20;;;4.40;;
65853;SDS011;52627;48.838;2.402;2022-09-06T03:30:15;8.20;;;4.40;;
65853;SDS011;52627;48.838;2.402;2022-09-06T03:32:43;8.40;;;4.40;;
65853;SDS011;52627;48.838;2.402;2022-09-06T03:35:11;7.50;;;4.40;;
65853;SDS011;52627;48.838;2.402;2022-09-06T03:37:38;8.10;;;4.30;;
65853;SDS011;52627;48.838;2.402;2022-09-06T03:40:06;10.00;;;5.40;;
65853;SDS011;52627;48.838;2.402;2022-09-06T03:42:34;8.50;;;5.60;;
65853;SDS011;52627;48.838;2.402;2022-09-06T03:45:02;11.80;;;6.90;;
65853;SDS011;52627;48.838;2.402;2022-09-06T03:47:30;22.00;;;14.20;;
65853;SDS011;52627;48.838;2.402;2022-09-06T03:49:57;19.50;;;13.40;;
65853;SDS011;52627;48.838;2.402;2022-09-06T03:52:25;19.80;;;11.80;;
65853;SDS011;52627;48.838;2.402;2022-09-06T03:54:52;16.70;;;10.70;;
65853;SDS011;52627;48.838;2.402;2022-09-06T03:57:20;16.50;;;10.60;;
65853;SDS011;52627;48.838;2.402;2022-09-06T03:59:47;14.70;;;9.50;;
65853;SDS011;52627;48.838;2.402;2022-09-06T04:02:15;11.90;;;9.00;;
65853;SDS011;52627;48.838;2.402;2022-09-06T04:04:42;12.20;;;7.20;;
65853;SDS011;52627;48.838;2.402;2022-09-06T04:07:10;8.90;;;6.00;;
65853;SDS011;52627;48.838;2.402;2022-09-06T04:09:37;8.70;;;5.50;;
65853;SDS011;52627;48.838;2.402;2022-09-06T04:12:05;8.30;;;5.60;;
65853;SDS011;52627;48.838;2.402;2022-09-06T04:14:32;8.30;;;4.60;;
65853;SDS011;52627;48.838;2.402;2022-09-06T04:17:00;6.80;;;4.70;;
65853;SDS011;52627;48.838;2.402;2022-09-06T04:19:27;6.20;;;4.10;;
65853;SDS011;52627;48.838;2.402;2022-09-06T04:21:55;7.40;;;4.70;;
65853;SDS011;52627;48.838;2.402;2022-09-06T04:24:22;8.10;;;4.30;;
65853;SDS011;52627;48.838;2.402;2022-09-06T04:26:49;7.50;;;4.30;;
65853;SDS011;52627;48.838;2.402;2022-09-06T04:29:17;7.80;;;4.30;;
65853;SDS011;52627;48.838;2.402;2022-09-06T04:31:44;7.50;;;4.40;;
65853;SDS011;52627;48.838;2.402;2022-09-06T04:34:12;7.40;;;4.40;;
65853;SDS011;52627;48.838;2.402;2022-09-06T04:36:39;6.90;;;4.50;;
65853;SDS011;52627;48.838;2.402;2022-09-06T04:39:10;7.30;;;4.90;;
65853;SDS011;52627;48.838;2.402;2022-09-06T04:41:37;6.40;;;4.50;;
65853;SDS011;52627;48.838;2.402;2022-09-06T04:44:06;9.60;;;5.00;;
65853;SDS011;52627;48.838;2.402;2022-09-06T04:46:33;9.90;;;5.10;;
65853;SDS011;52627;48.838;2.402;2022-09-06T04:49:00;7.70;;;5.00;;
65853;SDS011;52627;48.838;2.402;2022-09-06T04:51:28;8.60;;;4.50;;
65853;SDS011;52627;48.838;2.402;2022-09-06T04:53:55;7.80;;;4.70;;
65853;SDS011;52627;48.838;2.402;2022-09-06T04:56:24;11.20;;;5.10;;
65853;SDS011;52627;48.838;2.402;2022-09-06T04:58:54;7.40;;;4.60;;
65853;SDS011;52627;48.838;2.402;2022-09-06T05:01:21;10.50;;;5.10;;
65853;SDS011;52627;48.838;2.402;2022-09-06T05:03:49;10.10;;;5.20;;
65853;SDS011;52627;48.838;2.402;2022-09-06T05:06:23;12.50;;;4.60;;
65853;SDS011;52627;48.838;2.402;2022-09-06T05:08:51;7.70;;;4.60;;
65853;SDS011;52627;48.838;2.402;2022-09-06T05:11:19;6.60;;;4.00;;
65853;SDS011;52627;48.838;2.402;2022-09-06T05:13:46;10.90;;;5.10;;
65853;SDS011;52627;48.838;2.402;2022-09-06T05:16:16;7.00;;;3.70;;
65853;SDS011;52627;48.838;2.402;2022-09-06T05:18:44;8.50;;;4.50;;
65853;SDS011;52627;48.838;2.402;2022-09-06T05:21:11;11.60;;;5.20;;
65853;SDS011;52627;48.838;2.402;2022-09-06T05:23:39;9.40;;;4.70;;
65853;SDS011;52627;48.838;2.402;2022-09-06T05:26:07;8.50;;;4.30;;
65853;SDS011;52627;48.838;2.402;2022-09-06T05:28:35;9.10;;;4.20;;
65853;SDS011;52627;48.838;2.402;2022-09-06T05:31:10;14.00;;;4.50;;
65853;SDS011;52627;48.838;2.402;2022-09-06T05:33:39;9.40;;;4.70;;
65853;SDS011;52627;48.838;2.402;2022-09-06T05:36:07;9.10;;;4.60;;
65853;SDS011;52627;48.838;2.402;2022-09-06T05:38:35;7.10;;;4.30;;
65853;SDS011;52627;48.838;2.402;2022-09-06T05:41:02;9.90;;;4.40;;
65853;SDS011;52627;48.838;2.402;2022-09-06T05:43:30;9.40;;;4.60;;
65853;SDS011;52627;48.838;2.402;2022-09-06T05:45:58;9.60;;;4.30;;
65853;SDS011;52627;48.838;2.402;2022-09-06T05:48:25;5.90;;;4.00;;
65853;SDS011;52627;48.838;2.402;2022-09-06T05:51:20;9.50;;;4.90;;
65853;SDS011;52627;48.838;2.402;2022-09-06T05:53:47;9.50;;;4.70;;
65853;SDS011;52627;48.838;2.402;2022-09-06T05:56:15;7.70;;;5.00;;
65853;SDS011;52627;48.838;2.402;2022-09-06T05:58:43;9.20;;;4.70;;
65853;SDS011;52627;48.838;2.402;2022-09-06T06:01:22;8.60;;;4.40;;
65853;SDS011;52627;48.838;2.402;2022-09-06T06:06:31;6.90;;;4.50;;
65853;SDS011;52627;48.838;2.402;2022-09-06T06:08:59;7.90;;;4.20;;
65853;SDS011;52627;48.838;2.402;2022-09-06T06:11:27;9.90;;;4.50;;
65853;SDS011;52627;48.838;2.402;2022-09-06T06:13:57;10.90;;;4.70;;
65853;SDS011;52627;48.838;2.402;2022-09-06T06:16:25;9.20;;;5.00;;
65853;SDS011;52627;48.838;2.402;2022-09-06T06:18:53;9.30;;;4.40;;
65853;SDS011;52627;48.838;2.402;2022-09-06T06:21:26;9.00;;;4.90;;
65853;SDS011;52627;48.838;2.402;2022-09-06T06:24:02;12.20;;;4.90;;
65853;SDS011;52627;48.838;2.402;2022-09-06T06:26:33;10.20;;;4.90;;
65853;SDS011;52627;48.838;2.402;2022-09-06T06:29:02;10.10;;;4.80;;
65853;SDS011;52627;48.838;2.402;2022-09-06T06:31:32;12.20;;;5.20;;
65853;SDS011;52627;48.838;2.402;2022-09-06T06:33:59;10.00;;;4.80;;
65853;SDS011;52627;48.838;2.402;2022-09-06T06:36:31;9.10;;;5.20;;
65853;SDS011;52627;48.838;2.402;2022-09-06T06:39:02;9.70;;;4.70;;
65853;SDS011;52627;48.838;2.402;2022-09-06T06:41:31;7.40;;;4.70;;
65853;SDS011;52627;48.838;2.402;2022-09-06T06:44:01;8.70;;;4.90;;
65853;SDS011;52627;48.838;2.402;2022-09-06T06:46:32;9.40;;;4.80;;
65853;SDS011;52627;48.838;2.402;2022-09-06T06:49:01;12.40;;;4.80;;
65853;SDS011;52627;48.838;2.402;2022-09-06T06:51:31;9.40;;;4.70;;
65853;SDS011;52627;48.838;2.402;2022-09-06T06:53:59;9.60;;;5.50;;
65853;SDS011;52627;48.838;2.402;2022-09-06T06:56:34;12.40;;;5.50;;
65853;SDS011;52627;48.838;2.402;2022-09-06T06:59:04;10.90;;;5.10;;
65853;SDS011;52627;48.838;2.402;2022-09-06T07:01:34;10.80;;;5.60;;
65853;SDS011;52627;48.838;2.402;2022-09-06T07:04:04;11.00;;;5.30;;
65853;SDS011;52627;48.838;2.402;2022-09-06T07:06:45;12.10;;;5.30;;
65853;SDS011;52627;48.838;2.402;2022-09-06T07:09:34;8.70;;;5.30;;
65853;SDS011;52627;48.838;2.402;2022-09-06T07:12:23;10.10;;;5.30;;
65853;SDS011;52627;48.838;2.402;2022-09-06T07:14:50;11.30;;;5.50;;
65853;SDS011;52627;48.838;2.402;2022-09-06T07:17:18;13.30;;;5.20;;
65853;SDS011;52627;48.838;2.402;2022-09-06T07:19:46;10.00;;;5.10;;
65853;SDS011;52627;48.838;2.402;2022-09-06T07:22:33;10.20;;;5.40;;
65853;SDS011;52627;48.838;2.402;2022-09-06T07:25:02;13.10;;;6.10;;
65853;SDS011;52627;48.838;2.402;2022-09-06T07:27:31;10.10;;;5.30;;
65853;SDS011;52627;48.838;2.402;2022-09-06T07:30:17;9.50;;;5.60;;
65853;SDS011;52627;48.838;2.402;2022-09-06T07:32:46;14.50;;;6.30;;
65853;SDS011;52627;48.838;2.402;2022-09-06T07:35:14;9.50;;;5.20;;
65853;SDS011;52627;48.838;2.402;2022-09-06T07:37:41;7.40;;;5.00;;
65853;SDS011;52627;48.838;2.402;2022-09-06T07:40:09;9.60;;;5.30;;
65853;SDS011;52627;48.838;2.402;2022-09-06T07:42:37;8.90;;;5.40;;
65853;SDS011;52627;48.838;2.402;2022-09-06T07:45:05;13.30;;;5.30;;
65853;SDS011;52627;48.838;2.402;2022-09-06T07:47:33;8.80;;;4.90;;
65853;SDS011;52627;48.838;2.402;2022-09-06T07:50:21;11.00;;;4.50;;
65853;SDS011;52627;48.838;2.402;2022-09-06T07:53:09;7.70;;;4.40;;
65853;SDS011;52627;48.838;2.402;2022-09-06T07:55:43;9.40;;;3.60;;
65853;SDS011;52627;48.838;2.402;2022-09-06T07:58:11;7.10;;;3.20;;
65853;SDS011;52627;48.838;2.402;2022-09-06T08:00:40;11.00;;;3.10;;
65853;SDS011;52627;48.838;2.402;2022-09-06T08:03:08;5.30;;;2.70;;
65853;SDS011;52627;48.838;2.402;2022-09-06T08:05:36;7.80;;;2.70;;
65853;SDS011;52627;48.838;2.402;2022-09-06T08:08:24;7.90;;;2.90;;
65853;SDS011;52627;48.838;2.402;2022-09-06T08:11:12;7.00;;;3.00;;
65853;SDS011;52627;48.838;2.402;2022-09-06T08:13:40;5.30;;;2.70;;
65853;SDS011;52627;48.838;2.402;2022-09-06T08:16:09;6.80;;;3.00;;
65853;SDS011;52627;48.838;2.402;2022-09-06T08:18:38;6.70;;;2.60;;
65853;SDS011;52627;48.838;2.402;2022-09-06T08:21:10;9.30;;;2.90;;
65853;SDS011;52627;48.838;2.402;2022-09-06T08:24:05;7.00;;;3.20;;
65853;SDS011;52627;48.838;2.402;2022-09-06T08:26:35;9.40;;;4.20;;
65853;SDS011;52627;48.838;2.402;2022-09-06T08:29:08;9.20;;;3.60;;
65853;SDS011;52627;48.838;2.402;2022-09-06T08:31:42;11.40;;;3.50;;
65853;SDS011;52627;48.838;2.402;2022-09-06T08:34:10;7.20;;;2.50;;
65853;SDS011;52627;48.838;2.402;2022-09-06T08:36:41;7.40;;;3.10;;
65853;SDS011;52627;48.838;2.402;2022-09-06T08:39:10;5.70;;;3.00;;
65853;SDS011;52627;48.838;2.402;2022-09-06T08:42:01;6.20;;;3.00;;
65853;SDS011;52627;48.838;2.402;2022-09-06T08:44:34;13.30;;;3.40;;
65853;SDS011;52627;48.838;2.402;2022-09-06T08:47:24;8.40;;;3.20;;
65853;SDS011;52627;48.838;2.402;2022-09-06T08:49:59;7.00;;;2.80;;
65853;SDS011;52627;48.838;2.402;2022-09-06T09:01:13;7.60;;;2.70;;
65853;SDS011;52627;48.838;2.402;2022-09-06T09:03:45;5.60;;;2.10;;
65853;SDS011;52627;48.838;2.402;2022-09-06T09:06:13;5.50;;;2.40;;
65853;SDS011;52627;48.838;2.402;2022-09-06T09:11:19;5.60;;;2.40;;
65853;SDS011;52627;48.838;2.402;2022-09-06T09:13:55;6.50;;;2.00;;
65853;SDS011;52627;48.838;2.402;2022-09-06T09:16:25;7.40;;;2.10;;
65853;SDS011;52627;48.838;2.402;2022-09-06T09:18:56;6.10;;;2.40;;
65853;SDS011;52627;48.838;2.402;2022-09-06T09:21:27;6.40;;;2.10;;
65853;SDS011;52627;48.838;2.402;2022-09-06T09:24:02;8.10;;;2.90;;
65853;SDS011;52627;48.838;2.402;2022-09-06T09:26:44;7.40;;;3.20;;
65853;SDS011;52627;48.838;2.402;2022-09-06T09:29:16;8.90;;;3.10;;
65853;SDS011;52627;48.838;2.402;2022-09-06T09:31:50;7.20;;;3.20;;
65853;SDS011;52627;48.838;2.402;2022-09-06T09:37:19;5.60;;;2.80;;
65853;SDS011;52627;48.838;2.402;2022-09-06T09:42:42;7.70;;;2.70;;
65853;SDS011;52627;48.838;2.402;2022-09-06T09:45:36;8.20;;;3.00;;
65853;SDS011;52627;48.838;2.402;2022-09-06T09:48:24;8.20;;;2.90;;
65853;SDS011;52627;48.838;2.402;2022-09-06T09:50:54;6.10;;;3.00;;
65853;SDS011;52627;48.838;2.402;2022-09-06T09:53:23;7.00;;;2.80;;
65853;SDS011;52627;48.838;2.402;2022-09-06T09:55:56;7.50;;;2.90;;
65853;SDS011;52627;48.838;2.402;2022-09-06T09:58:35;8.30;;;3.70;;
65853;SDS011;52627;48.838;2.402;2022-09-06T10:01:23;12.00;;;5.60;;
65853;SDS011;52627;48.838;2.402;2022-09-06T10:04:00;9.30;;;5.30;;
65853;SDS011;52627;48.838;2.402;2022-09-06T10:06:49;6.90;;;3.20;;
65853;SDS011;52627;48.838;2.402;2022-09-06T10:09:40;8.70;;;3.90;;
65853;SDS011;52627;48.838;2.402;2022-09-06T10:12:15;7.70;;;3.20;;
65853;SDS011;52627;48.838;2.402;2022-09-06T10:14:48;10.10;;;3.50;;
65853;SDS011;52627;48.838;2.402;2022-09-06T10:17:51;7.60;;;2.80;;
65853;SDS011;52627;48.838;2.402;2022-09-06T10:20:39;6.10;;;2.90;;
65853;SDS011;52627;48.838;2.402;2022-09-06T10:23:13;6.00;;;3.10;;
65853;SDS011;52627;48.838;2.402;2022-09-06T10:29:04;8.20;;;2.50;;
65853;SDS011;52627;48.838;2.402;2022-09-06T10:47:09;5.50;;;2.40;;
65853;SDS011;52627;48.838;2.402;2022-09-06T10:49:48;6.50;;;2.60;;
65853;SDS011;52627;48.838;2.402;2022-09-06T10:52:26;4.80;;;2.90;;
65853;SDS011;52627;48.838;2.402;2022-09-06T10:57:50;7.40;;;2.40;;
65853;SDS011;52627;48.838;2.402;2022-09-06T11:00:44;9.40;;;3.30;;
65853;SDS011;52627;48.838;2.402;2022-09-06T11:03:24;5.50;;;2.40;;
65853;SDS011;52627;48.838;2.402;2022-09-06T11:06:16;5.70;;;2.30;;
65853;SDS011;52627;48.838;2.402;2022-09-06T11:11:44;5.80;;;2.70;;
65853;SDS011;52627;48.838;2.402;2022-09-06T11:14:19;4.60;;;2.20;;
65853;SDS011;52627;48.838;2.402;2022-09-06T11:16:52;5.80;;;2.30;;
65853;SDS011;52627;48.838;2.402;2022-09-06T11:28:21;9.10;;;2.50;;
65853;SDS011;52627;48.838;2.402;2022-09-06T11:31:00;4.20;;;2.30;;
65853;SDS011;52627;48.838;2.402;2022-09-06T11:33:33;6.80;;;2.90;;
65853;SDS011;52627;48.838;2.402;2022-09-06T11:36:17;5.30;;;2.50;;
65853;SDS011;52627;48.838;2.402;2022-09-06T11:39:00;5.70;;;3.20;;
65853;SDS011;52627;48.838;2.402;2022-09-06T11:41:38;6.50;;;2.80;;
65853;SDS011;52627;48.838;2.402;2022-09-06T11:44:09;6.20;;;3.10;;
65853;SDS011;52627;48.838;2.402;2022-09-06T11:51:43;7.40;;;2.80;;
65853;SDS011;52627;48.838;2.402;2022-09-06T11:54:36;7.20;;;2.50;;
65853;SDS011;52627;48.838;2.402;2022-09-06T11:57:21;6.20;;;2.90;;
65853;SDS011;52627;48.838;2.402;2022-09-06T11:59:57;5.70;;;2.50;;
65853;SDS011;52627;48.838;2.402;2022-09-06T12:05:17;4.30;;;2.40;;
65853;SDS011;52627;48.838;2.402;2022-09-06T12:11:03;6.40;;;2.80;;
65853;SDS011;52627;48.838;2.402;2022-09-06T12:13:39;4.80;;;2.60;;
65853;SDS011;52627;48.838;2.402;2022-09-06T12:16:09;6.00;;;2.90;;
65853;SDS011;52627;48.838;2.402;2022-09-06T12:21:46;6.70;;;2.80;;
65853;SDS011;52627;48.838;2.402;2022-09-06T12:27:16;5.00;;;2.30;;
65853;SDS011;52627;48.838;2.402;2022-09-06T12:30:01;4.90;;;2.90;;
65853;SDS011;52627;48.838;2.402;2022-09-06T12:32:46;5.50;;;2.40;;
65853;SDS011;52627;48.838;2.402;2022-09-06T12:35:20;4.50;;;2.10;;
65853;SDS011;52627;48.838;2.402;2022-09-06T12:38:14;6.10;;;2.60;;
65853;SDS011;52627;48.838;2.402;2022-09-06T12:40:47;5.30;;;2.50;;
65853;SDS011;52627;48.838;2.402;2022-09-06T12:43:18;6.60;;;2.50;;
65853;SDS011;52627;48.838;2.402;2022-09-06T12:45:49;5.10;;;2.70;;
65853;SDS011;52627;48.838;2.402;2022-09-06T12:53:33;8.50;;;2.50;;
65853;SDS011;52627;48.838;2.402;2022-09-06T12:56:09;6.60;;;2.60;;
65853;SDS011;52627;48.838;2.402;2022-09-06T12:58:41;7.70;;;2.50;;
65853;SDS011;52627;48.838;2.402;2022-09-06T13:03:57;4.30;;;2.50;;
65853;SDS011;52627;48.838;2.402;2022-09-06T13:06:32;5.40;;;2.30;;
65853;SDS011;52627;48.838;2.402;2022-09-06T13:09:03;4.80;;;2.40;;
65853;SDS011;52627;48.838;2.402;2022-09-06T13:11:37;4.40;;;1.90;;
65853;SDS011;52627;48.838;2.402;2022-09-06T13:14:12;6.00;;;2.00;;
65853;SDS011;52627;48.838;2.402;2022-09-06T13:16:49;4.40;;;1.90;;
65853;SDS011;52627;48.838;2.402;2022-09-06T13:21:59;5.10;;;2.30;;
65853;SDS011;52627;48.838;2.402;2022-09-06T13:30:07;3.60;;;1.90;;
65853;SDS011;52627;48.838;2.402;2022-09-06T13:32:45;5.80;;;2.00;;
65853;SDS011;52627;48.838;2.402;2022-09-06T13:35:24;4.70;;;2.20;;
65853;SDS011;52627;48.838;2.402;2022-09-06T13:38:19;3.80;;;1.90;;
65853;SDS011;52627;48.838;2.402;2022-09-06T13:41:00;5.70;;;2.00;;
65853;SDS011;52627;48.838;2.402;2022-09-06T13:43:43;6.80;;;1.90;;
65853;SDS011;52627;48.838;2.402;2022-09-06T13:46:13;3.80;;;1.90;;
65853;SDS011;52627;48.838;2.402;2022-09-06T13:48:41;3.60;;;1.70;;
65853;SDS011;52627;48.838;2.402;2022-09-06T13:51:10;5.40;;;1.70;;
65853;SDS011;52627;48.838;2.402;2022-09-06T13:53:38;5.90;;;2.00;;
65853;SDS011;52627;48.838;2.402;2022-09-06T13:56:05;4.10;;;1.90;;
65853;SDS011;52627;48.838;2.402;2022-09-06T13:58:35;4.20;;;1.70;;
65853;SDS011;52627;48.838;2.402;2022-09-06T14:01:04;2.90;;;1.90;;
65853;SDS011;52627;48.838;2.402;2022-09-06T14:03:39;4.30;;;1.80;;
65853;SDS011;52627;48.838;2.402;2022-09-06T14:06:08;5.60;;;1.90;;
65853;SDS011;52627;48.838;2.402;2022-09-06T14:08:36;5.70;;;1.80;;
65853;SDS011;52627;48.838;2.402;2022-09-06T14:11:25;5.60;;;1.80;;
65853;SDS011;52627;48.838;2.402;2022-09-06T14:13:53;3.50;;;1.60;;
65853;SDS011;52627;48.838;2.402;2022-09-06T14:16:21;4.50;;;1.90;;
65853;SDS011;52627;48.838;2.402;2022-09-06T14:18:49;3.50;;;1.90;;
65853;SDS011;52627;48.838;2.402;2022-09-06T14:21:18;5.20;;;2.20;;
65853;SDS011;52627;48.838;2.402;2022-09-06T14:23:49;5.30;;;1.70;;
65853;SDS011;52627;48.838;2.402;2022-09-06T14:26:20;5.30;;;1.70;;
65853;SDS011;52627;48.838;2.402;2022-09-06T14:31:20;8.50;;;1.50;;
65853;SDS011;52627;48.838;2.402;2022-09-06T14:33:55;3.80;;;1.90;;
65853;SDS011;52627;48.838;2.402;2022-09-06T14:36:25;2.50;;;1.20;;
65853;SDS011;52627;48.838;2.402;2022-09-06T14:38:58;3.20;;;1.30;;
65853;SDS011;52627;48.838;2.402;2022-09-06T14:41:26;3.30;;;1.40;;
65853;SDS011;52627;48.838;2.402;2022-09-06T14:43:56;2.60;;;1.40;;
65853;SDS011;52627;48.838;2.402;2022-09-06T14:46:25;2.70;;;1.20;;
65853;SDS011;52627;48.838;2.402;2022-09-06T14:48:59;4.40;;;1.50;;
65853;SDS011;52627;48.838;2.402;2022-09-06T14:51:29;4.90;;;1.50;;
65853;SDS011;52627;48.838;2.402;2022-09-06T14:54:00;2.50;;;1.30;;
65853;SDS011;52627;48.838;2.402;2022-09-06T14:56:31;2.40;;;1.20;;
65853;SDS011;52627;48.838;2.402;2022-09-06T14:58:58;3.00;;;1.30;;
65853;SDS011;52627;48.838;2.402;2022-09-06T15:01:28;7.30;;;1.40;;
65853;SDS011;52627;48.838;2.402;2022-09-06T15:04:06;3.20;;;1.20;;
65853;SDS011;52627;48.838;2.402;2022-09-06T15:06:37;4.00;;;1.30;;
65853;SDS011;52627;48.838;2.402;2022-09-06T15:09:07;3.70;;;1.30;;
65853;SDS011;52627;48.838;2.402;2022-09-06T15:11:40;2.60;;;1.10;;
65853;SDS011;52627;48.838;2.402;2022-09-06T15:14:23;2.30;;;1.10;;
65853;SDS011;52627;48.838;2.402;2022-09-06T15:16:53;5.20;;;1.20;;
65853;SDS011;52627;48.838;2.402;2022-09-06T15:19:27;4.20;;;1.30;;
65853;SDS011;52627;48.838;2.402;2022-09-06T15:21:56;2.10;;;1.00;;
65853;SDS011;52627;48.838;2.402;2022-09-06T15:24:24;4.10;;;1.70;;
65853;SDS011;52627;48.838;2.402;2022-09-06T15:26:52;3.40;;;1.50;;
65853;SDS011;52627;48.838;2.402;2022-09-06T15:29:19;4.00;;;1.40;;
65853;SDS011;52627;48.838;2.402;2022-09-06T15:31:48;3.30;;;1.20;;
65853;SDS011;52627;48.838;2.402;2022-09-06T15:34:21;2.60;;;1.10;;
65853;SDS011;52627;48.838;2.402;2022-09-06T15:36:50;3.90;;;1.50;;
65853;SDS011;52627;48.838;2.402;2022-09-06T15:39:18;3.50;;;1.30;;
65853;SDS011;52627;48.838;2.402;2022-09-06T15:41:48;3.00;;;1.30;;
65853;SDS011;52627;48.838;2.402;2022-09-06T15:44:17;3.80;;;1.10;;
65853;SDS011;52627;48.838;2.402;2022-09-06T15:46:49;4.20;;;1.70;;
65853;SDS011;52627;48.838;2.402;2022-09-06T15:49:23;5.40;;;1.40;;
65853;SDS011;52627;48.838;2.402;2022-09-06T15:51:55;3.90;;;1.50;;
65853;SDS011;52627;48.838;2.402;2022-09-06T15:54:25;5.60;;;1.70;;
65853;SDS011;52627;48.838;2.402;2022-09-06T15:57:13;3.60;;;1.40;;
65853;SDS011;52627;48.838;2.402;2022-09-06T15:59:40;3.90;;;1.30;;
65853;SDS011;52627;48.838;2.402;2022-09-06T16:02:09;3.50;;;1.60;;
65853;SDS011;52627;48.838;2.402;2022-09-06T16:04:36;5.10;;;1.80;;
65853;SDS011;52627;48.838;2.402;2022-09-06T16:07:05;4.80;;;1.50;;
65853;SDS011;52627;48.838;2.402;2022-09-06T16:09:33;4.20;;;1.40;;
65853;SDS011;52627;48.838;2.402;2022-09-06T16:12:00;3.90;;;2.10;;
65853;SDS011;52627;48.838;2.402;2022-09-06T16:14:28;3.30;;;1.50;;
65853;SDS011;52627;48.838;2.402;2022-09-06T16:16:56;5.20;;;1.50;;
65853;SDS011;52627;48.838;2.402;2022-09-06T16:19:24;5.10;;;1.70;;
65853;SDS011;52627;48.838;2.402;2022-09-06T16:21:54;4.10;;;1.50;;
65853;SDS011;52627;48.838;2.402;2022-09-06T16:24:22;3.90;;;1.70;;
65853;SDS011;52627;48.838;2.402;2022-09-06T16:26:49;5.60;;;1.80;;
65853;SDS011;52627;48.838;2.402;2022-09-06T16:29:17;4.60;;;1.90;;
65853;SDS011;52627;48.838;2.402;2022-09-06T16:31:46;5.90;;;1.80;;
65853;SDS011;52627;48.838;2.402;2022-09-06T16:34:14;4.00;;;2.10;;
65853;SDS011;52627;48.838;2.402;2022-09-06T16:36:42;6.70;;;2.80;;
65853;SDS011;52627;48.838;2.402;2022-09-06T16:39:09;3.20;;;1.50;;
65853;SDS011;52627;48.838;2.402;2022-09-06T16:41:43;4.50;;;1.80;;
65853;SDS011;52627;48.838;2.402;2022-09-06T16:44:16;4.60;;;1.50;;
65853;SDS011;52627;48.838;2.402;2022-09-06T16:46:46;4.70;;;1.80;;
65853;SDS011;52627;48.838;2.402;2022-09-06T16:49:16;3.80;;;1.80;;
65853;SDS011;52627;48.838;2.402;2022-09-06T16:51:46;3.90;;;1.60;;
65853;SDS011;52627;48.838;2.402;2022-09-06T16:54:16;3.70;;;1.50;;
65853;SDS011;52627;48.838;2.402;2022-09-06T16:56:44;3.80;;;1.70;;
65853;SDS011;52627;48.838;2.402;2022-09-06T16:59:12;3.10;;;1.60;;
65853;SDS011;52627;48.838;2.402;2022-09-06T17:01:43;4.80;;;1.90;;
65853;SDS011;52627;48.838;2.402;2022-09-06T17:04:12;5.20;;;2.30;;
65853;SDS011;52627;48.838;2.402;2022-09-06T17:06:40;5.20;;;2.30;;
65853;SDS011;52627;48.838;2.402;2022-09-06T17:11:41;4.80;;;2.50;;
65853;SDS011;52627;48.838;2.402;2022-09-06T17:14:08;6.40;;;2.20;;
65853;SDS011;52627;48.838;2.402;2022-09-06T17:16:36;4.10;;;2.20;;
65853;SDS011;52627;48.838;2.402;2022-09-06T17:19:22;4.70;;;1.90;;
65853;SDS011;52627;48.838;2.402;2022-09-06T17:21:50;4.60;;;2.00;;
65853;SDS011;52627;48.838;2.402;2022-09-06T17:24:17;4.60;;;2.20;;
65853;SDS011;52627;48.838;2.402;2022-09-06T17:26:45;5.20;;;1.80;;
65853;SDS011;52627;48.838;2.402;2022-09-06T17:29:12;4.70;;;1.70;;